<?xml version="1.0" encoding="utf-8"?>
<gpx xmlns:xsi="http://www.w3.org/2001/XMLSchema-instance" xmlns:xsd="http://www.w3.org/2001/XMLSchema" version="1.1" creator="Shapelink.com" xmlns="http://www.topografix.com/GPX/1/1" xmlns:gpxtpx="http://www.garmin.com/xmlschemas/TrackPointExtension/v1">
  <metadata>
    <name>Floorball 1.92 km, 2019-12-23</name>
    <desc></desc>
    <author><name>Peter Littke</name></author> 
    <time>2019-12-23T15:55:32Z</time>
  </metadata>
  <trk>
    <name>Floorball 1.92 km, 2019-12-23</name>
    <trkseg>
      <trkpt lat="59.340417" lon="18.085144">
        <ele>4</ele>
        <time>2019-12-23T16:16:36Z</time>
      </trkpt>
      <trkpt lat="59.340506" lon="18.085202">
        <ele>0</ele>
        <time>2019-12-23T16:16:39Z</time>
      </trkpt>
      <trkpt lat="59.340553" lon="18.085353">
        <ele>19</ele>
        <time>2019-12-23T16:17:01Z</time>
      </trkpt>
      <trkpt lat="59.340556" lon="18.085534">
        <ele>0</ele>
        <time>2019-12-23T16:17:15Z</time>
      </trkpt>
      <trkpt lat="59.340458" lon="18.085473">
        <ele>21</ele>
        <time>2019-12-23T16:17:31Z</time>
      </trkpt>
      <trkpt lat="59.340411" lon="18.085315">
        <ele>0</ele>
        <time>2019-12-23T16:17:36Z</time>
      </trkpt>
      <trkpt lat="59.340512" lon="18.085315">
        <ele>0</ele>
        <time>2019-12-23T16:17:53Z</time>
      </trkpt>
      <trkpt lat="59.340557" lon="18.085468">
        <ele>0</ele>
        <time>2019-12-23T16:17:59Z</time>
      </trkpt>
      <trkpt lat="59.340578" lon="18.085296">
        <ele>21</ele>
        <time>2019-12-23T16:18:15Z</time>
      </trkpt>
      <trkpt lat="59.340647" lon="18.085415">
        <ele>0</ele>
        <time>2019-12-23T16:18:30Z</time>
      </trkpt>
      <trkpt lat="59.340574" lon="18.085311">
        <ele>0</ele>
        <time>2019-12-23T16:18:45Z</time>
      </trkpt>
      <trkpt lat="59.340506" lon="18.085184">
        <ele>0</ele>
        <time>2019-12-23T16:18:50Z</time>
      </trkpt>
      <trkpt lat="59.340421" lon="18.085029">
        <ele>21</ele>
        <time>2019-12-23T16:19:01Z</time>
      </trkpt>
      <trkpt lat="59.340438" lon="18.085208">
        <ele>0</ele>
        <time>2019-12-23T16:19:23Z</time>
      </trkpt>
      <trkpt lat="59.340491" lon="18.08537">
        <ele>20</ele>
        <time>2019-12-23T16:19:31Z</time>
      </trkpt>
      <trkpt lat="59.340539" lon="18.08522">
        <ele>0</ele>
        <time>2019-12-23T16:19:37Z</time>
      </trkpt>
      <trkpt lat="59.340454" lon="18.085115">
        <ele>0</ele>
        <time>2019-12-23T16:19:48Z</time>
      </trkpt>
      <trkpt lat="59.340475" lon="18.085287">
        <ele>17</ele>
        <time>2019-12-23T16:20:08Z</time>
      </trkpt>
      <trkpt lat="59.340591" lon="18.085275">
        <ele>0</ele>
        <time>2019-12-23T16:20:13Z</time>
      </trkpt>
      <trkpt lat="59.340485" lon="18.085284">
        <ele>0</ele>
        <time>2019-12-23T16:20:29Z</time>
      </trkpt>
      <trkpt lat="59.340454" lon="18.085106">
        <ele>0</ele>
        <time>2019-12-23T16:20:41Z</time>
      </trkpt>
      <trkpt lat="59.340508" lon="18.08527">
        <ele>0</ele>
        <time>2019-12-23T16:20:50Z</time>
      </trkpt>
      <trkpt lat="59.340531" lon="18.085454">
        <ele>18</ele>
        <time>2019-12-23T16:21:01Z</time>
      </trkpt>
      <trkpt lat="59.34045" lon="18.085377">
        <ele>0</ele>
        <time>2019-12-23T16:21:13Z</time>
      </trkpt>
      <trkpt lat="59.340486" lon="18.085211">
        <ele>0</ele>
        <time>2019-12-23T16:21:57Z</time>
      </trkpt>
      <trkpt lat="59.340573" lon="18.085315">
        <ele>16</ele>
        <time>2019-12-23T16:22:11Z</time>
      </trkpt>
      <trkpt lat="59.340654" lon="18.085402">
        <ele>0</ele>
        <time>2019-12-23T16:22:41Z</time>
      </trkpt>
      <trkpt lat="59.340544" lon="18.085417">
        <ele>0</ele>
        <time>2019-12-23T16:22:47Z</time>
      </trkpt>
      <trkpt lat="59.340547" lon="18.08524">
        <ele>18</ele>
        <time>2019-12-23T16:23:08Z</time>
      </trkpt>
      <trkpt lat="59.340618" lon="18.085424">
        <ele>0</ele>
        <time>2019-12-23T16:23:33Z</time>
      </trkpt>
      <trkpt lat="59.340645" lon="18.085606">
        <ele>0</ele>
        <time>2019-12-23T16:23:38Z</time>
      </trkpt>
      <trkpt lat="59.340581" lon="18.085464">
        <ele>0</ele>
        <time>2019-12-23T16:23:45Z</time>
      </trkpt>
      <trkpt lat="59.340595" lon="18.085647">
        <ele>16</ele>
        <time>2019-12-23T16:24:01Z</time>
      </trkpt>
      <trkpt lat="59.340656" lon="18.085794">
        <ele>0</ele>
        <time>2019-12-23T16:24:39Z</time>
      </trkpt>
      <trkpt lat="59.340565" lon="18.085716">
        <ele>17</ele>
        <time>2019-12-23T16:25:04Z</time>
      </trkpt>
      <trkpt lat="59.340477" lon="18.085673">
        <ele>0</ele>
        <time>2019-12-23T16:25:19Z</time>
      </trkpt>
      <trkpt lat="59.340421" lon="18.0855">
        <ele>0</ele>
        <time>2019-12-23T16:25:25Z</time>
      </trkpt>
      <trkpt lat="59.340509" lon="18.08541">
        <ele>0</ele>
        <time>2019-12-23T16:25:35Z</time>
      </trkpt>
      <trkpt lat="59.340573" lon="18.08528">
        <ele>0</ele>
        <time>2019-12-23T16:25:40Z</time>
      </trkpt>
      <trkpt lat="59.340623" lon="18.085468">
        <ele>17</ele>
        <time>2019-12-23T16:26:01Z</time>
      </trkpt>
      <trkpt lat="59.340529" lon="18.085327">
        <ele>0</ele>
        <time>2019-12-23T16:26:08Z</time>
      </trkpt>
      <trkpt lat="59.340467" lon="18.085179">
        <ele>0</ele>
        <time>2019-12-23T16:26:11Z</time>
      </trkpt>
      <trkpt lat="59.340498" lon="18.085367">
        <ele>0</ele>
        <time>2019-12-23T16:26:41Z</time>
      </trkpt>
      <trkpt lat="59.340572" lon="18.085543">
        <ele>0</ele>
        <time>2019-12-23T16:26:45Z</time>
      </trkpt>
      <trkpt lat="59.340633" lon="18.085692">
        <ele>14</ele>
        <time>2019-12-23T16:26:51Z</time>
      </trkpt>
      <trkpt lat="59.340563" lon="18.085581">
        <ele>13</ele>
        <time>2019-12-23T16:27:01Z</time>
      </trkpt>
      <trkpt lat="59.340505" lon="18.085441">
        <ele>0</ele>
        <time>2019-12-23T16:27:13Z</time>
      </trkpt>
      <trkpt lat="59.340559" lon="18.085597">
        <ele>0</ele>
        <time>2019-12-23T16:27:20Z</time>
      </trkpt>
      <trkpt lat="59.340629" lon="18.085755">
        <ele>0</ele>
        <time>2019-12-23T16:27:25Z</time>
      </trkpt>
      <trkpt lat="59.340686" lon="18.085905">
        <ele>13</ele>
        <time>2019-12-23T16:27:31Z</time>
      </trkpt>
      <trkpt lat="59.340763" lon="18.086096">
        <ele>0</ele>
        <time>2019-12-23T16:27:37Z</time>
      </trkpt>
      <trkpt lat="59.340834" lon="18.08621">
        <ele>14</ele>
        <time>2019-12-23T16:27:41Z</time>
      </trkpt>
      <trkpt lat="59.340756" lon="18.086119">
        <ele>0</ele>
        <time>2019-12-23T16:27:48Z</time>
      </trkpt>
      <trkpt lat="59.340672" lon="18.086051">
        <ele>0</ele>
        <time>2019-12-23T16:27:50Z</time>
      </trkpt>
      <trkpt lat="59.340616" lon="18.085842">
        <ele>0</ele>
        <time>2019-12-23T16:27:54Z</time>
      </trkpt>
      <trkpt lat="59.340535" lon="18.085744">
        <ele>0</ele>
        <time>2019-12-23T16:27:56Z</time>
      </trkpt>
      <trkpt lat="59.340481" lon="18.085579">
        <ele>0</ele>
        <time>2019-12-23T16:27:58Z</time>
      </trkpt>
      <trkpt lat="59.340442" lon="18.085365">
        <ele>14</ele>
        <time>2019-12-23T16:28:01Z</time>
      </trkpt>
      <trkpt lat="59.340532" lon="18.085302">
        <ele>0</ele>
        <time>2019-12-23T16:28:11Z</time>
      </trkpt>
      <trkpt lat="59.340556" lon="18.085472">
        <ele>0</ele>
        <time>2019-12-23T16:28:23Z</time>
      </trkpt>
      <trkpt lat="59.340626" lon="18.085611">
        <ele>0</ele>
        <time>2019-12-23T16:28:31Z</time>
      </trkpt>
      <trkpt lat="59.340558" lon="18.085491">
        <ele>13</ele>
        <time>2019-12-23T16:28:41Z</time>
      </trkpt>
      <trkpt lat="59.340451" lon="18.085539">
        <ele>0</ele>
        <time>2019-12-23T16:28:48Z</time>
      </trkpt>
      <trkpt lat="59.340418" lon="18.085369">
        <ele>12</ele>
        <time>2019-12-23T16:29:00Z</time>
      </trkpt>
      <trkpt lat="59.340495" lon="18.085249">
        <ele>0</ele>
        <time>2019-12-23T16:29:20Z</time>
      </trkpt>
      <trkpt lat="59.340412" lon="18.085091">
        <ele>0</ele>
        <time>2019-12-23T16:29:26Z</time>
      </trkpt>
      <trkpt lat="59.340503" lon="18.08498">
        <ele>0</ele>
        <time>2019-12-23T16:29:45Z</time>
      </trkpt>
      <trkpt lat="59.340537" lon="18.085177">
        <ele>0</ele>
        <time>2019-12-23T16:29:53Z</time>
      </trkpt>
      <trkpt lat="59.340561" lon="18.085352">
        <ele>0</ele>
        <time>2019-12-23T16:29:56Z</time>
      </trkpt>
      <trkpt lat="59.340529" lon="18.085176">
        <ele>14</ele>
        <time>2019-12-23T16:30:15Z</time>
      </trkpt>
      <trkpt lat="59.34045" lon="18.085268">
        <ele>0</ele>
        <time>2019-12-23T16:30:23Z</time>
      </trkpt>
      <trkpt lat="59.34055" lon="18.085418">
        <ele>16</ele>
        <time>2019-12-23T16:30:31Z</time>
      </trkpt>
      <trkpt lat="59.340621" lon="18.085536">
        <ele>0</ele>
        <time>2019-12-23T16:30:41Z</time>
      </trkpt>
      <trkpt lat="59.340543" lon="18.085389">
        <ele>0</ele>
        <time>2019-12-23T16:30:59Z</time>
      </trkpt>
      <trkpt lat="59.340465" lon="18.085299">
        <ele>15</ele>
        <time>2019-12-23T16:31:01Z</time>
      </trkpt>
      <trkpt lat="59.340543" lon="18.085387">
        <ele>0</ele>
        <time>2019-12-23T16:31:20Z</time>
      </trkpt>
      <trkpt lat="59.34051" lon="18.085193">
        <ele>0</ele>
        <time>2019-12-23T16:31:33Z</time>
      </trkpt>
      <trkpt lat="59.34057" lon="18.085355">
        <ele>0</ele>
        <time>2019-12-23T16:31:48Z</time>
      </trkpt>
      <trkpt lat="59.340474" lon="18.085412">
        <ele>0</ele>
        <time>2019-12-23T16:31:53Z</time>
      </trkpt>
      <trkpt lat="59.340382" lon="18.085389">
        <ele>0</ele>
        <time>2019-12-23T16:31:58Z</time>
      </trkpt>
      <trkpt lat="59.340379" lon="18.085204">
        <ele>16</ele>
        <time>2019-12-23T16:32:13Z</time>
      </trkpt>
      <trkpt lat="59.340478" lon="18.085172">
        <ele>0</ele>
        <time>2019-12-23T16:32:29Z</time>
      </trkpt>
      <trkpt lat="59.340513" lon="18.085338">
        <ele>0</ele>
        <time>2019-12-23T16:32:50Z</time>
      </trkpt>
      <trkpt lat="59.340609" lon="18.085404">
        <ele>0</ele>
        <time>2019-12-23T16:32:56Z</time>
      </trkpt>
      <trkpt lat="59.340521" lon="18.085358">
        <ele>13</ele>
        <time>2019-12-23T16:33:06Z</time>
      </trkpt>
      <trkpt lat="59.340455" lon="18.085206">
        <ele>0</ele>
        <time>2019-12-23T16:33:10Z</time>
      </trkpt>
      <trkpt lat="59.340363" lon="18.085226">
        <ele>0</ele>
        <time>2019-12-23T16:33:25Z</time>
      </trkpt>
      <trkpt lat="59.340461" lon="18.085254">
        <ele>16</ele>
        <time>2019-12-23T16:34:01Z</time>
      </trkpt>
      <trkpt lat="59.340367" lon="18.085276">
        <ele>0</ele>
        <time>2019-12-23T16:34:18Z</time>
      </trkpt>
      <trkpt lat="59.340472" lon="18.085248">
        <ele>0</ele>
        <time>2019-12-23T16:34:30Z</time>
      </trkpt>
      <trkpt lat="59.34055" lon="18.085339">
        <ele>0</ele>
        <time>2019-12-23T16:34:33Z</time>
      </trkpt>
      <trkpt lat="59.340437" lon="18.085318">
        <ele>0</ele>
        <time>2019-12-23T16:34:54Z</time>
      </trkpt>
      <trkpt lat="59.340522" lon="18.085221">
        <ele>14</ele>
        <time>2019-12-23T16:35:18Z</time>
      </trkpt>
      <trkpt lat="59.340532" lon="18.085403">
        <ele>0</ele>
        <time>2019-12-23T16:35:34Z</time>
      </trkpt>
      <trkpt lat="59.340443" lon="18.08535">
        <ele>13</ele>
        <time>2019-12-23T16:36:27Z</time>
      </trkpt>
      <trkpt lat="59.340474" lon="18.08552">
        <ele>0</ele>
        <time>2019-12-23T16:36:53Z</time>
      </trkpt>
      <trkpt lat="59.340563" lon="18.08557">
        <ele>17</ele>
        <time>2019-12-23T16:37:00Z</time>
      </trkpt>
      <trkpt lat="59.340634" lon="18.085423">
        <ele>0</ele>
        <time>2019-12-23T16:37:09Z</time>
      </trkpt>
      <trkpt lat="59.340552" lon="18.085512">
        <ele>0</ele>
        <time>2019-12-23T16:37:43Z</time>
      </trkpt>
      <trkpt lat="59.340529" lon="18.085683">
        <ele>14</ele>
        <time>2019-12-23T16:38:11Z</time>
      </trkpt>
      <trkpt lat="59.340542" lon="18.085485">
        <ele>0</ele>
        <time>2019-12-23T16:38:24Z</time>
      </trkpt>
      <trkpt lat="59.340469" lon="18.085349">
        <ele>0</ele>
        <time>2019-12-23T16:38:28Z</time>
      </trkpt>
      <trkpt lat="59.340549" lon="18.085263">
        <ele>0</ele>
        <time>2019-12-23T16:38:46Z</time>
      </trkpt>
      <trkpt lat="59.34057" lon="18.08545">
        <ele>0</ele>
        <time>2019-12-23T16:38:51Z</time>
      </trkpt>
      <trkpt lat="59.340537" lon="18.085257">
        <ele>13</ele>
        <time>2019-12-23T16:39:00Z</time>
      </trkpt>
      <trkpt lat="59.340493" lon="18.085435">
        <ele>0</ele>
        <time>2019-12-23T16:39:18Z</time>
      </trkpt>
      <trkpt lat="59.340496" lon="18.085659">
        <ele>0</ele>
        <time>2019-12-23T16:39:35Z</time>
      </trkpt>
      <trkpt lat="59.340423" lon="18.085555">
        <ele>0</ele>
        <time>2019-12-23T16:39:48Z</time>
      </trkpt>
      <trkpt lat="59.340505" lon="18.08564">
        <ele>11</ele>
        <time>2019-12-23T16:40:04Z</time>
      </trkpt>
      <trkpt lat="59.340485" lon="18.085416">
        <ele>13</ele>
        <time>2019-12-23T16:40:21Z</time>
      </trkpt>
      <trkpt lat="59.340439" lon="18.08525">
        <ele>0</ele>
        <time>2019-12-23T16:40:26Z</time>
      </trkpt>
      <trkpt lat="59.340413" lon="18.085433">
        <ele>13</ele>
        <time>2019-12-23T16:40:41Z</time>
      </trkpt>
      <trkpt lat="59.340494" lon="18.085509">
        <ele>0</ele>
        <time>2019-12-23T16:40:49Z</time>
      </trkpt>
      <trkpt lat="59.340584" lon="18.085577">
        <ele>0</ele>
        <time>2019-12-23T16:40:59Z</time>
      </trkpt>
      <trkpt lat="59.340502" lon="18.085487">
        <ele>13</ele>
        <time>2019-12-23T16:41:33Z</time>
      </trkpt>
      <trkpt lat="59.340567" lon="18.085644">
        <ele>11</ele>
        <time>2019-12-23T16:41:51Z</time>
      </trkpt>
      <trkpt lat="59.340659" lon="18.08564">
        <ele>11</ele>
        <time>2019-12-23T16:42:13Z</time>
      </trkpt>
      <trkpt lat="59.340622" lon="18.085477">
        <ele>11</ele>
        <time>2019-12-23T16:42:21Z</time>
      </trkpt>
      <trkpt lat="59.340529" lon="18.085485">
        <ele>0</ele>
        <time>2019-12-23T16:42:29Z</time>
      </trkpt>
      <trkpt lat="59.340457" lon="18.085358">
        <ele>13</ele>
        <time>2019-12-23T16:42:41Z</time>
      </trkpt>
      <trkpt lat="59.340394" lon="18.085209">
        <ele>0</ele>
        <time>2019-12-23T16:42:47Z</time>
      </trkpt>
      <trkpt lat="59.340472" lon="18.085347">
        <ele>12</ele>
        <time>2019-12-23T16:43:04Z</time>
      </trkpt>
      <trkpt lat="59.340396" lon="18.085246">
        <ele>0</ele>
        <time>2019-12-23T16:43:48Z</time>
      </trkpt>
      <trkpt lat="59.340288" lon="18.085237">
        <ele>0</ele>
        <time>2019-12-23T16:43:53Z</time>
      </trkpt>
      <trkpt lat="59.340363" lon="18.085334">
        <ele>15</ele>
        <time>2019-12-23T16:44:25Z</time>
      </trkpt>
      <trkpt lat="59.340432" lon="18.085469">
        <ele>0</ele>
        <time>2019-12-23T16:44:34Z</time>
      </trkpt>
      <trkpt lat="59.34053" lon="18.085482">
        <ele>0</ele>
        <time>2019-12-23T16:44:44Z</time>
      </trkpt>
      <trkpt lat="59.34062" lon="18.085481">
        <ele>16</ele>
        <time>2019-12-23T16:45:01Z</time>
      </trkpt>
      <trkpt lat="59.340523" lon="18.08551">
        <ele>20</ele>
        <time>2019-12-23T16:45:31Z</time>
      </trkpt>
      <trkpt lat="59.340615" lon="18.085436">
        <ele>0</ele>
        <time>2019-12-23T16:45:44Z</time>
      </trkpt>
      <trkpt lat="59.340516" lon="18.085477">
        <ele>0</ele>
        <time>2019-12-23T16:45:58Z</time>
      </trkpt>
      <trkpt lat="59.340422" lon="18.085327">
        <ele>19</ele>
        <time>2019-12-23T16:46:03Z</time>
      </trkpt>
      <trkpt lat="59.34051" lon="18.085241">
        <ele>0</ele>
        <time>2019-12-23T16:46:28Z</time>
      </trkpt>
      <trkpt lat="59.340471" lon="18.085403">
        <ele>0</ele>
        <time>2019-12-23T16:46:47Z</time>
      </trkpt>
      <trkpt lat="59.34041" lon="18.085538">
        <ele>22</ele>
        <time>2019-12-23T16:47:28Z</time>
      </trkpt>
      <trkpt lat="59.340496" lon="18.085596">
        <ele>0</ele>
        <time>2019-12-23T16:47:38Z</time>
      </trkpt>
      <trkpt lat="59.340436" lon="18.085454">
        <ele>0</ele>
        <time>2019-12-23T16:47:47Z</time>
      </trkpt>
      <trkpt lat="59.340426" lon="18.085633">
        <ele>21</ele>
        <time>2019-12-23T16:48:10Z</time>
      </trkpt>
      <trkpt lat="59.340541" lon="18.085639">
        <ele>0</ele>
        <time>2019-12-23T16:48:19Z</time>
      </trkpt>
      <trkpt lat="59.34048" lon="18.085485">
        <ele>21</ele>
        <time>2019-12-23T16:48:31Z</time>
      </trkpt>
      <trkpt lat="59.340399" lon="18.085393">
        <ele>0</ele>
        <time>2019-12-23T16:48:46Z</time>
      </trkpt>
      <trkpt lat="59.340494" lon="18.085331">
        <ele>24</ele>
        <time>2019-12-23T16:49:03Z</time>
      </trkpt>
      <trkpt lat="59.340397" lon="18.085284">
        <ele>0</ele>
        <time>2019-12-23T16:49:19Z</time>
      </trkpt>
      <trkpt lat="59.340474" lon="18.085391">
        <ele>21</ele>
        <time>2019-12-23T16:50:04Z</time>
      </trkpt>
      <trkpt lat="59.340575" lon="18.085335">
        <ele>0</ele>
        <time>2019-12-23T16:50:11Z</time>
      </trkpt>
      <trkpt lat="59.340474" lon="18.085302">
        <ele>0</ele>
        <time>2019-12-23T16:50:23Z</time>
      </trkpt>
      <trkpt lat="59.340402" lon="18.085412">
        <ele>0</ele>
        <time>2019-12-23T16:50:34Z</time>
      </trkpt>
      <trkpt lat="59.340504" lon="18.085462">
        <ele>0</ele>
        <time>2019-12-23T16:50:45Z</time>
      </trkpt>
      <trkpt lat="59.340584" lon="18.085373">
        <ele>23</ele>
        <time>2019-12-23T16:50:51Z</time>
      </trkpt>
      <trkpt lat="59.340548" lon="18.085203">
        <ele>23</ele>
        <time>2019-12-23T16:51:00Z</time>
      </trkpt>
      <trkpt lat="59.340591" lon="18.085391">
        <ele>0</ele>
        <time>2019-12-23T16:51:20Z</time>
      </trkpt>
      <trkpt lat="59.340503" lon="18.085495">
        <ele>0</ele>
        <time>2019-12-23T16:51:23Z</time>
      </trkpt>
      <trkpt lat="59.340428" lon="18.085596">
        <ele>0</ele>
        <time>2019-12-23T16:51:26Z</time>
      </trkpt>
      <trkpt lat="59.340501" lon="18.085481">
        <ele>0</ele>
        <time>2019-12-23T16:51:35Z</time>
      </trkpt>
      <trkpt lat="59.340597" lon="18.085528">
        <ele>0</ele>
        <time>2019-12-23T16:51:53Z</time>
      </trkpt>
      <trkpt lat="59.340521" lon="18.085644">
        <ele>24</ele>
        <time>2019-12-23T16:52:04Z</time>
      </trkpt>
      <trkpt lat="59.34061" lon="18.085718">
        <ele>0</ele>
        <time>2019-12-23T16:52:19Z</time>
      </trkpt>
      <trkpt lat="59.340531" lon="18.085874">
        <ele>0</ele>
        <time>2019-12-23T16:52:29Z</time>
      </trkpt>
      <trkpt lat="59.34043" lon="18.085894">
        <ele>0</ele>
        <time>2019-12-23T16:52:33Z</time>
      </trkpt>
      <trkpt lat="59.340456" lon="18.085675">
        <ele>0</ele>
        <time>2019-12-23T16:52:39Z</time>
      </trkpt>
      <trkpt lat="59.340484" lon="18.085507">
        <ele>0</ele>
        <time>2019-12-23T16:52:55Z</time>
      </trkpt>
      <trkpt lat="59.340502" lon="18.085324">
        <ele>27</ele>
        <time>2019-12-23T16:53:40Z</time>
      </trkpt>
      <trkpt lat="59.340569" lon="18.085484">
        <ele>0</ele>
        <time>2019-12-23T16:53:47Z</time>
      </trkpt>
      <trkpt lat="59.340482" lon="18.08553">
        <ele>28</ele>
        <time>2019-12-23T16:54:19Z</time>
      </trkpt>
      <trkpt lat="59.340575" lon="18.085513">
        <ele>0</ele>
        <time>2019-12-23T16:54:40Z</time>
      </trkpt>
      <trkpt lat="59.340504" lon="18.085645">
        <ele>0</ele>
        <time>2019-12-23T16:54:47Z</time>
      </trkpt>
      <trkpt lat="59.340594" lon="18.085639">
        <ele>31</ele>
        <time>2019-12-23T16:55:19Z</time>
      </trkpt>
      <trkpt lat="59.340686" lon="18.085646">
        <ele>0</ele>
        <time>2019-12-23T16:55:25Z</time>
      </trkpt>
      <trkpt lat="59.340596" lon="18.085587">
        <ele>32</ele>
        <time>2019-12-23T16:55:31Z</time>
      </trkpt>
      <trkpt lat="59.340528" lon="18.085729">
        <ele>0</ele>
        <time>2019-12-23T16:55:51Z</time>
      </trkpt>
      <trkpt lat="59.340628" lon="18.0857">
        <ele>33</ele>
        <time>2019-12-23T16:56:30Z</time>
      </trkpt>
      <trkpt lat="59.340532" lon="18.085604">
        <ele>0</ele>
        <time>2019-12-23T16:56:35Z</time>
      </trkpt>
      <trkpt lat="59.340548" lon="18.085429">
        <ele>0</ele>
        <time>2019-12-23T16:56:40Z</time>
      </trkpt>
      <trkpt lat="59.340498" lon="18.085585">
        <ele>34</ele>
        <time>2019-12-23T16:57:03Z</time>
      </trkpt>
      <trkpt lat="59.3404" lon="18.085599">
        <ele>0</ele>
        <time>2019-12-23T16:57:14Z</time>
      </trkpt>
      <trkpt lat="59.340324" lon="18.085474">
        <ele>0</ele>
        <time>2019-12-23T16:57:18Z</time>
      </trkpt>
      <trkpt lat="59.340314" lon="18.085443">
        <ele>0</ele>
        <time>2019-12-23T16:57:19Z</time>
      </trkpt>
    </trkseg>
  </trk>
</gpx>